Aviation Digital Data Service (ADDS)

Output produced by METARs form (0140 UTC 03 July 2022)
found at http://www.aviationweather.gov/metar/data/
 
NGTA 030100Z 11014G20KT 9999 SCT018TCU SCT040 29/26 Q1006
NGTA 030000Z 09009KT 9999 SCT018TCU SCT040 29/26 Q1006
NGTA 022300Z 09013G20KT 9999 VCSH FEW015CB SCT035 27/25 Q1007
NGTA 022200Z 09009G21KT 9999 -SHRA SCT014CB BKN035 26/25 Q1007 RMK RR 1.2MM
NGTA 022100Z 10011KT 9999 VCSH FEW015CB SCT035 27/26 Q1007 RMK RR 1.2MM
NGTA 022000Z 09009KT 9999 FEW016 SCT040 28/25 Q1007
NGTA 021900Z 09008KT 9999 FEW018TCU BKN040 26/25 Q1006
NGTA 021800Z 10009KT 9999 FEW018TCU 27/25 Q1005
NGTA 021700Z 08005KT 9999 FEW018TCU 27/25 Q1005
NGTA 021600Z 07006KT 9999 -SHRA SCT018TCU 26/25 Q1006 RMK RR TRACE
NGTA 021500Z 09009KT 9999 FEW019 27/25 Q1006
NGTA 021400Z 09008KT 9999 FEW019 27/25 Q1006
NGTA 021300Z 10010KT 9999 FEW019 28/25 Q1007
NGTA 021200Z 10011KT 9999 SCT019 28/25 Q1007
NGTA 021100Z 09010KT 9999 SCT019 28/25 Q1007
NGTA 021000Z 10008KT 9999 FEW020 27/25 Q1007
NGTA 020900Z 09009KT 9999 FEW019 27/24 Q1007
NGTA 020800Z 10012KT 9999 SCT019 27/24 Q1006
NGTA 020700Z 10015KT 9999 FEW020 28/24 Q1006
NGTA 020600Z 10010KT 9999 FEW020 28/24 Q1005
NGTA 020500Z 11012KT 9999 FEW020 29/24 Q1005
NGTA 020400Z 11013KT 9999 FEW020 30/24 Q1005
NGTA 020300Z 12013KT 9999 FEW020 30/25 Q1005
TAF NGTA 022318Z 0300/0324 09011KT 9999 FEW015 SCT035 
     PROB30 
     TEMPO 0300/0315 5000 TSRA BKN015 FEW017CB